Terminal Aerodrome Forecast
Issued by NWS Amarillo, TX

Home | Current Version | Previous Version | Text Only | Print | Product List | Glossary On
Versions: 1 2 3 4 5 6 7 8 9 10 11 12 13 14 15 16 17 18 19 20
000
FTUS44 KAMA 201100
TAFDHT
TAF
KDHT 201138Z 2012/2112 21006KT 6SM BR OVC012
      TEMPO 2012/2014 1/4SM FG BKN003
     FM201600 14008KT P6SM BKN025
     FM201800 14010KT P6SM BKN050
     FM210900 33005KT P6SM SCT025=

USA.gov is the U.S. government's official web portal to all federal, state and local government web resources and services.